createdAt,value
2023-04-30T00:00:24.175Z,100236.46
2023-04-30T00:03:16.654Z,100237.34
2023-04-30T00:05:52.012Z,100235.58
2023-04-30T00:08:24.434Z,100237.34
2023-04-30T00:10:57.019Z,100235.62
2023-04-30T00:13:29.488Z,100237.42
2023-04-30T00:16:01.818Z,100236.55
2023-04-30T00:18:34.446Z,100228.75
2023-04-30T00:21:07.220Z,100246.15
2023-04-30T00:23:40.419Z,100237.44
2023-04-30T00:26:12.933Z,100236.59
2023-04-30T00:28:47.775Z,100240.13
2023-04-30T00:31:20.299Z,100250.54
2023-04-30T00:33:54.616Z,100251.45
2023-04-30T00:36:27.223Z,100250.58
2023-04-30T00:39:00.556Z,100255.84
2023-04-30T00:41:33.684Z,100250.66
2023-04-30T00:44:06.935Z,100255.05
2023-04-30T00:46:39.683Z,100251.59
2023-04-30T00:49:12.353Z,100256.81
2023-04-30T00:51:45.489Z,100255.13
2023-04-30T00:54:19.395Z,100264.73
2023-04-30T00:56:52.532Z,100263.00
2023-04-30T00:59:25.990Z,100256.02
2023-04-30T01:01:58.598Z,100257.78
2023-04-30T01:04:33.846Z,100259.51
2023-04-30T01:07:06.976Z,100253.40
2023-04-30T01:09:39.762Z,100254.25
2023-04-30T01:12:22.333Z,100256.81
2023-04-30T01:15:05.913Z,100254.20
2023-04-30T01:17:46.460Z,100256.81
2023-04-30T01:20:19.101Z,100252.44
2023-04-30T01:22:57.274Z,100258.54
2023-04-30T01:25:55.189Z,100255.93
2023-04-30T01:28:29.364Z,100263.76
2023-04-30T01:31:04.752Z,100270.71
2023-04-30T01:33:37.220Z,100265.48
2023-04-30T01:36:21.489Z,100266.33
2023-04-30T01:39:08.665Z,100268.95
2023-04-30T01:41:52.091Z,100265.45
2023-04-30T01:44:42.440Z,100269.78
2023-04-30T01:47:24.146Z,100274.13
2023-04-30T01:50:06.908Z,100274.13
2023-04-30T01:52:47.407Z,100272.40
2023-04-30T01:55:28.191Z,100275.86
2023-04-30T01:58:02.843Z,100276.73
2023-04-30T02:00:35.645Z,100277.58
2023-04-30T02:03:08.396Z,100274.97
2023-04-30T02:05:41.170Z,100279.34
2023-04-30T02:08:13.751Z,100281.95
2023-04-30T02:10:46.086Z,100281.08
2023-04-30T02:13:18.873Z,100284.53
2023-04-30T02:15:51.660Z,100290.64
2023-04-30T02:18:24.576Z,100293.25
2023-04-30T02:20:57.376Z,100289.80
2023-04-30T02:23:30.298Z,100289.80
2023-04-30T02:26:03.406Z,100291.52
2023-04-30T02:28:36.424Z,100288.06
2023-04-30T02:31:08.999Z,100295.06
2023-04-30T02:33:41.428Z,100295.09
2023-04-30T02:36:14.320Z,100293.38
2023-04-30T02:38:49.325Z,100304.78
2023-04-30T02:41:23.115Z,100310.05
2023-04-30T02:43:56.163Z,100309.20
2023-04-30T02:46:29.098Z,100311.89
2023-04-30T02:49:01.864Z,100314.54
2023-04-30T02:51:34.121Z,100313.73
2023-04-30T02:54:06.608Z,100327.67
2023-04-30T02:56:40.041Z,100329.44
2023-04-30T02:59:12.498Z,100328.55
2023-04-30T03:01:45.408Z,100334.69
2023-04-30T03:04:17.884Z,100340.83
2023-04-30T03:06:50.234Z,100334.77
2023-04-30T03:09:23.479Z,100337.41
2023-04-30T03:11:56.135Z,100335.69
2023-04-30T03:14:28.531Z,100347.92
2023-04-30T03:17:01.089Z,100345.31
2023-04-30T03:19:34.303Z,100349.68
2023-04-30T03:22:06.808Z,100351.45
2023-04-30T03:24:39.342Z,100354.97
2023-04-30T03:27:11.813Z,100362.87
2023-04-30T03:29:44.460Z,100359.37
2023-04-30T03:32:17.329Z,100362.87
2023-04-30T03:34:49.791Z,100369.84
2023-04-30T03:37:22.850Z,100374.25
2023-04-30T03:39:57.580Z,100382.95
2023-04-30T03:42:30.308Z,100381.32
2023-04-30T03:45:02.691Z,100389.27
2023-04-30T03:47:37.859Z,100390.29
2023-04-30T03:50:12.542Z,100400.86
2023-04-30T03:52:44.959Z,100401.84
2023-04-30T03:55:18.762Z,100410.63
2023-04-30T03:57:52.365Z,100418.52
2023-04-30T04:00:25.835Z,100417.70
2023-04-30T04:03:00.756Z,100424.72
2023-04-30T04:05:34.272Z,100438.64
2023-04-30T04:08:07.694Z,100441.29
2023-04-30T04:10:40.438Z,100444.81
2023-04-30T04:13:12.838Z,100447.48
2023-04-30T04:15:47.063Z,100456.17
2023-04-30T04:18:19.525Z,100461.42
2023-04-30T04:20:54.888Z,100470.13
2023-04-30T04:23:28.689Z,100474.48
2023-04-30T04:26:02.015Z,100478.83
2023-04-30T04:28:34.718Z,100487.53
2023-04-30T04:31:08.230Z,100485.78
2023-04-30T04:33:40.593Z,100497.05
2023-04-30T04:36:13.614Z,100498.79
2023-04-30T04:38:47.336Z,100501.37
2023-04-30T04:41:20.092Z,100498.76
2023-04-30T04:43:54.405Z,100505.70
2023-04-30T04:46:28.645Z,100521.33
2023-04-30T04:49:01.386Z,100523.95
2023-04-30T04:51:34.131Z,100517.02
2023-04-30T04:54:07.063Z,100526.55
2023-04-30T04:56:39.465Z,100525.70
2023-04-30T04:59:11.853Z,100531.77
2023-04-30T05:01:44.649Z,100537.83
2023-04-30T05:04:17.132Z,100536.95
2023-04-30T05:06:51.106Z,100536.94
2023-04-30T05:09:24.812Z,100546.50
2023-04-30T05:11:57.554Z,100545.61
2023-04-30T05:14:30.565Z,100553.41
2023-04-30T05:17:02.964Z,100552.53
2023-04-30T05:19:35.878Z,100564.69
2023-04-30T05:22:08.311Z,100564.64
2023-04-30T05:24:40.949Z,100569.00
2023-04-30T05:27:13.541Z,100566.37
2023-04-30T05:29:47.349Z,100570.70
2023-04-30T05:32:20.209Z,100572.40
2023-04-30T05:34:53.969Z,100577.61
2023-04-30T05:37:28.372Z,100583.64
2023-04-30T05:40:00.829Z,100584.50
2023-04-30T05:42:33.560Z,100587.09
2023-04-30T05:45:06.949Z,100583.59
2023-04-30T05:47:39.342Z,100593.13
2023-04-30T05:50:13.044Z,100594.83
2023-04-30T05:52:45.314Z,100596.55
2023-04-30T05:55:17.868Z,100598.28
2023-04-30T05:57:50.189Z,100604.31
2023-04-30T06:00:25.054Z,100607.72
2023-04-30T06:02:57.551Z,100608.49
2023-04-30T06:05:32.498Z,100606.70
2023-04-30T06:08:05.162Z,100608.38
2023-04-30T06:10:38.363Z,100611.80
2023-04-30T06:13:11.487Z,100614.39
2023-04-30T06:15:44.819Z,100614.39
2023-04-30T06:18:17.909Z,100623.00
2023-04-30T06:20:50.849Z,100632.16
2023-04-30T06:23:28.952Z,100629.82
2023-04-30T06:26:03.028Z,100622.67
2023-04-30T06:28:36.261Z,100633.70
2023-04-30T06:31:08.721Z,100625.50
2023-04-30T06:33:41.428Z,100618.26
2023-04-30T06:36:13.878Z,100624.34
2023-04-30T06:38:48.620Z,100620.06
2023-04-30T06:41:21.148Z,100619.61
2023-04-30T06:43:53.905Z,100621.16
2023-04-30T06:46:26.682Z,100603.94
2023-04-30T06:48:59.053Z,100623.14
2023-04-30T06:51:31.488Z,100616.31
2023-04-30T06:54:03.825Z,100617.52
2023-04-30T06:56:36.838Z,100618.72
2023-04-30T06:59:09.233Z,100622.66
2023-04-30T07:01:42.169Z,100629.36
2023-04-30T07:04:14.691Z,100631.34
2023-04-30T07:06:47.335Z,100634.18
2023-04-30T07:09:19.911Z,100634.90
2023-04-30T07:11:52.366Z,100633.09
2023-04-30T07:14:25.869Z,100642.09
2023-04-30T07:16:58.585Z,100636.66
2023-04-30T07:19:30.886Z,100643.54
2023-04-30T07:22:03.249Z,100648.70
2023-04-30T07:24:35.716Z,100640.63
2023-04-30T07:27:08.320Z,100654.06
2023-04-30T07:29:40.761Z,100659.84
2023-04-30T07:32:13.350Z,100650.82
2023-04-30T07:34:48.198Z,100652.88
2023-04-30T07:37:20.804Z,100659.86
2023-04-30T07:39:53.574Z,100667.37
2023-04-30T07:42:27.366Z,100668.05
2023-04-30T07:45:00.935Z,100681.13
2023-04-30T07:47:33.460Z,100676.31
2023-04-30T07:50:06.563Z,100672.02
2023-04-30T07:52:39.077Z,100675.36
2023-04-30T07:55:12.224Z,100670.84
2023-04-30T07:57:45.171Z,100679.39
2023-04-30T08:00:18.269Z,100675.09
2023-04-30T08:02:51.252Z,100676.63
2023-04-30T08:05:25.756Z,100680.70
2023-04-30T08:07:58.409Z,100671.84
2023-04-30T08:10:32.152Z,100682.97
2023-04-30T08:13:05.336Z,100678.49
2023-04-30T08:15:40.463Z,100688.05
2023-04-30T08:18:13.187Z,100688.31
2023-04-30T08:20:45.846Z,100690.53
2023-04-30T08:23:18.645Z,100690.16
2023-04-30T08:25:52.672Z,100694.61
2023-04-30T08:28:25.417Z,100693.77
2023-04-30T08:30:57.836Z,100698.16
2023-04-30T08:33:33.599Z,100705.98
2023-04-30T08:36:07.892Z,100701.97
2023-04-30T08:38:40.778Z,100713.43
2023-04-30T08:41:16.132Z,100707.16
2023-04-30T08:43:50.052Z,100710.19
2023-04-30T08:46:25.254Z,100710.91
2023-04-30T08:48:58.017Z,100709.13
2023-04-30T08:51:35.373Z,100719.80
2023-04-30T08:54:07.915Z,100712.89
2023-04-30T08:56:41.387Z,100714.93
2023-04-30T08:59:15.195Z,100718.29
2023-04-30T09:01:48.127Z,100723.17
2023-04-30T09:04:20.804Z,100711.14
2023-04-30T09:06:59.338Z,100718.39
2023-04-30T09:09:38.813Z,100725.36
2023-04-30T09:12:20.207Z,100727.64
2023-04-30T09:15:03.844Z,100731.06
2023-04-30T09:17:37.660Z,100736.01
2023-04-30T09:20:17.666Z,100725.95
2023-04-30T09:23:06.445Z,100729.65
2023-04-30T09:25:45.447Z,100735.80
2023-04-30T09:28:17.950Z,100741.64
2023-04-30T09:30:51.779Z,100733.05
2023-04-30T09:33:25.706Z,100737.42
2023-04-30T09:35:58.902Z,100738.61
2023-04-30T09:38:32.932Z,100743.72
2023-04-30T09:41:05.455Z,100741.78
2023-04-30T09:43:47.809Z,100734.36
2023-04-30T09:46:22.725Z,100732.81
2023-04-30T09:49:01.300Z,100741.58
2023-04-30T09:51:34.341Z,100740.88
2023-04-30T09:54:11.823Z,100738.02
2023-04-30T09:56:44.253Z,100739.50
2023-04-30T09:59:18.176Z,100741.61
2023-04-30T10:01:52.703Z,100734.31
2023-04-30T10:04:25.842Z,100734.11
2023-04-30T10:07:02.004Z,100734.31
2023-04-30T10:09:46.657Z,100733.86
2023-04-30T10:12:27.450Z,100737.63
2023-04-30T10:15:07.899Z,100732.79
2023-04-30T10:17:44.380Z,100734.91
2023-04-30T10:20:19.224Z,100721.01
2023-04-30T10:22:52.479Z,100731.91
2023-04-30T10:25:28.572Z,100735.27
2023-04-30T10:28:03.264Z,100736.90
2023-04-30T10:30:37.848Z,100730.66
2023-04-30T10:33:33.152Z,100740.64
2023-04-30T10:36:09.538Z,100742.75
2023-04-30T10:38:42.574Z,100740.31
2023-04-30T10:41:15.357Z,100731.41
2023-04-30T10:43:50.135Z,100731.30
2023-04-30T10:46:29.496Z,100731.16
2023-04-30T10:49:01.889Z,100724.91
2023-04-30T10:51:52.060Z,100732.69
2023-04-30T10:54:29.369Z,100741.36
2023-04-30T10:57:14.726Z,100745.65
2023-04-30T10:59:53.284Z,100738.98
2023-04-30T11:02:39.916Z,100746.52
2023-04-30T11:05:18.330Z,100738.59
2023-04-30T11:07:52.377Z,100738.16
2023-04-30T11:10:26.908Z,100737.50
2023-04-30T11:13:01.106Z,100745.23
2023-04-30T11:15:42.185Z,100742.06
2023-04-30T11:18:16.477Z,100737.59
2023-04-30T11:20:58.825Z,100739.13
2023-04-30T11:23:40.113Z,100742.16
2023-04-30T11:26:14.385Z,100752.64
2023-04-30T11:28:54.689Z,100753.70
2023-04-30T11:31:37.786Z,100748.91
2023-04-30T11:34:11.657Z,100751.55
2023-04-30T11:36:46.825Z,100748.91
2023-04-30T11:39:19.750Z,100746.23
2023-04-30T11:41:52.199Z,100748.80
2023-04-30T11:44:29.466Z,100754.56
2023-04-30T11:47:03.026Z,100752.52
2023-04-30T11:49:35.554Z,100755.16
2023-04-30T11:52:09.719Z,100757.58
2023-04-30T11:54:42.249Z,100762.06
2023-04-30T11:57:18.435Z,100770.77
2023-04-30T11:59:51.113Z,100759.55
2023-04-30T12:02:25.688Z,100767.02
2023-04-30T12:04:58.996Z,100762.02
2023-04-30T12:07:31.715Z,100767.86
2023-04-30T12:10:04.090Z,100774.58
2023-04-30T12:12:39.807Z,100774.12
2023-04-30T12:15:18.040Z,100776.72
2023-04-30T12:17:50.652Z,100767.86
2023-04-30T12:20:25.687Z,100762.70
2023-04-30T12:22:59.040Z,100755.61
2023-04-30T12:25:32.066Z,100762.48
2023-04-30T12:28:04.507Z,100764.69
2023-04-30T12:30:37.894Z,100768.42
2023-04-30T12:33:13.434Z,100759.09
2023-04-30T12:35:46.865Z,100762.94
2023-04-30T12:38:20.547Z,100764.75
2023-04-30T12:40:53.666Z,100761.77
2023-04-30T12:43:26.472Z,100768.61
2023-04-30T12:45:59.914Z,100771.75
2023-04-30T12:48:31.332Z,100764.67
2023-04-30T12:51:05.252Z,100766.19
2023-04-30T12:53:47.832Z,100757.27
2023-04-30T12:56:20.285Z,100762.47
2023-04-30T12:58:52.841Z,100759.84
2023-04-30T13:01:27.729Z,100756.35
2023-04-30T13:04:01.245Z,100756.45
2023-04-30T13:06:34.312Z,100756.38
2023-04-30T13:09:06.826Z,100749.68
2023-04-30T13:11:39.101Z,100760.48
2023-04-30T13:14:13.253Z,100761.36
2023-04-30T13:16:45.721Z,100754.30
2023-04-30T13:19:17.976Z,100758.47
2023-04-30T13:21:50.650Z,100761.11
2023-04-30T13:24:23.118Z,100758.13
2023-04-30T13:26:57.944Z,100764.75
2023-04-30T13:29:30.617Z,100765.63
2023-04-30T13:32:04.484Z,100752.45
2023-04-30T13:34:36.919Z,100751.89
2023-04-30T13:37:10.050Z,100752.86
2023-04-30T13:39:43.260Z,100766.42
2023-04-30T13:42:17.200Z,100754.53
2023-04-30T13:44:50.488Z,100765.38
2023-04-30T13:47:22.985Z,100759.50
2023-04-30T13:49:56.894Z,100756.90
2023-04-30T13:52:30.732Z,100759.30
2023-04-30T13:55:03.874Z,100748.83
2023-04-30T13:57:36.301Z,100757.57
2023-04-30T14:00:10.930Z,100761.38
2023-04-30T14:02:45.716Z,100749.43
2023-04-30T14:05:18.239Z,100763.61
2023-04-30T14:07:50.867Z,100750.67
2023-04-30T14:10:26.059Z,100758.56
2023-04-30T14:12:58.654Z,100764.02
2023-04-30T14:15:32.729Z,100760.98
2023-04-30T14:18:04.210Z,100758.56
2023-04-30T14:20:37.281Z,100758.19
2023-04-30T14:23:10.119Z,100765.27
2023-04-30T14:25:43.323Z,100751.14
2023-04-30T14:28:15.644Z,100762.48
2023-04-30T14:30:47.902Z,100759.94
2023-04-30T14:33:20.469Z,100765.20
2023-04-30T14:35:55.419Z,100771.67
2023-04-30T14:38:30.556Z,100766.73
2023-04-30T14:41:03.330Z,100773.02
2023-04-30T14:43:35.947Z,100771.48
2023-04-30T14:46:08.585Z,100761.92
2023-04-30T14:48:41.185Z,100765.20
2023-04-30T14:51:13.560Z,100761.75
2023-04-30T14:53:46.294Z,100778.59
2023-04-30T14:56:18.761Z,100766.53
2023-04-30T14:58:51.179Z,100776.45
2023-04-30T15:01:28.420Z,100772.16
2023-04-30T15:04:01.117Z,100776.48
2023-04-30T15:06:33.496Z,100778.38
2023-04-30T15:09:06.822Z,100767.20
2023-04-30T15:11:39.292Z,100779.57
2023-04-30T15:14:12.021Z,100769.24
2023-04-30T15:16:44.283Z,100774.60
2023-04-30T15:19:16.678Z,100774.60
2023-04-30T15:21:49.291Z,100775.44
2023-04-30T15:24:21.769Z,100775.55
2023-04-30T15:26:55.436Z,100773.87
2023-04-30T15:29:30.276Z,100786.17
2023-04-30T15:32:02.618Z,100784.55
2023-04-30T15:34:34.874Z,100787.38
2023-04-30T15:37:07.441Z,100788.43
2023-04-30T15:39:39.902Z,100781.56
2023-04-30T15:42:12.240Z,100771.02
2023-04-30T15:44:45.220Z,100781.45
2023-04-30T15:47:18.043Z,100775.52
2023-04-30T15:49:51.652Z,100789.59
2023-04-30T15:52:26.744Z,100787.91
2023-04-30T15:54:59.152Z,100788.75
2023-04-30T15:57:31.989Z,100773.91
2023-04-30T16:00:05.376Z,100789.74
2023-04-30T16:02:44.136Z,100782.91
2023-04-30T16:05:17.132Z,100790.93
2023-04-30T16:07:49.924Z,100785.03
2023-04-30T16:10:22.979Z,100789.62
2023-04-30T16:12:55.455Z,100787.00
2023-04-30T16:15:30.588Z,100791.41
2023-04-30T16:18:03.274Z,100787.95
2023-04-30T16:20:35.727Z,100786.31
2023-04-30T16:23:08.823Z,100789.91
2023-04-30T16:25:41.361Z,100787.38
2023-04-30T16:28:13.778Z,100790.94
2023-04-30T16:30:46.116Z,100789.30
2023-04-30T16:33:18.542Z,100792.89
2023-04-30T16:35:52.223Z,100795.63
2023-04-30T16:38:27.128Z,100794.88
2023-04-30T16:40:59.448Z,100800.19
2023-04-30T16:43:32.120Z,100801.16
2023-04-30T16:46:04.546Z,100803.86
2023-04-30T16:48:36.793Z,100803.05
2023-04-30T16:51:11.554Z,100797.89
2023-04-30T16:53:44.367Z,100804.98
2023-04-30T16:56:19.954Z,100806.83
2023-04-30T16:58:52.520Z,100806.89
2023-04-30T17:01:27.321Z,100801.73
2023-04-30T17:03:59.696Z,100807.93
2023-04-30T17:06:33.399Z,100812.35
2023-04-30T17:09:06.080Z,100809.84
2023-04-30T17:11:38.862Z,100818.67
2023-04-30T17:14:11.571Z,100812.66
2023-04-30T17:16:44.259Z,100822.34
2023-04-30T17:19:19.413Z,100811.09
2023-04-30T17:21:53.209Z,100813.77
2023-04-30T17:24:26.986Z,100819.94
2023-04-30T17:27:01.219Z,100821.79
2023-04-30T17:29:33.560Z,100828.84
2023-04-30T17:32:06.407Z,100835.03
2023-04-30T17:34:39.240Z,100835.99
2023-04-30T17:37:13.872Z,100840.42
2023-04-30T17:39:46.664Z,100837.88
2023-04-30T17:42:19.418Z,100839.71
2023-04-30T17:44:52.071Z,100842.39
2023-04-30T17:47:26.777Z,100848.56
2023-04-30T17:50:04.125Z,100851.23
2023-04-30T17:52:38.864Z,100853.91
2023-04-30T17:55:13.184Z,100859.23
2023-04-30T17:57:45.745Z,100857.53
2023-04-30T18:00:18.938Z,100854.08
2023-04-30T18:02:51.981Z,100860.22
2023-04-30T18:05:27.426Z,100869.83
2023-04-30T18:08:00.413Z,100869.91
2023-04-30T18:10:32.852Z,100860.39
2023-04-30T18:13:05.298Z,100861.33
2023-04-30T18:15:39.102Z,100864.83
2023-04-30T18:18:12.448Z,100874.44
2023-04-30T18:20:44.998Z,100871.89
2023-04-30T18:23:17.663Z,100871.94
2023-04-30T18:25:50.303Z,100880.66
2023-04-30T18:28:25.241Z,100872.00
2023-04-30T18:30:59.596Z,100882.45
2023-04-30T18:33:32.279Z,100880.75
2023-04-30T18:36:07.584Z,100888.56
2023-04-30T18:38:39.998Z,100887.73
2023-04-30T18:41:12.783Z,100885.97
2023-04-30T18:43:46.115Z,100889.45
2023-04-30T18:46:18.580Z,100894.64
2023-04-30T18:48:51.150Z,100900.67
2023-04-30T18:51:25.625Z,100898.05
2023-04-30T18:53:58.847Z,100899.72
2023-04-30T18:56:31.605Z,100904.91
2023-04-30T18:59:04.283Z,100910.08
2023-04-30T19:01:37.843Z,100906.61
2023-04-30T19:04:13.919Z,100907.47
2023-04-30T19:06:49.829Z,100904.84
2023-04-30T19:09:22.402Z,100914.41
2023-04-30T19:11:59.694Z,100916.95
2023-04-30T19:14:33.416Z,100914.34
2023-04-30T19:17:06.794Z,100918.64
2023-04-30T19:19:39.946Z,100923.80
2023-04-30T19:22:12.608Z,100919.41
2023-04-30T19:24:45.115Z,100926.30
2023-04-30T19:27:17.415Z,100929.69
2023-04-30T19:29:50.955Z,100924.44
2023-04-30T19:32:26.011Z,100920.89
2023-04-30T19:34:59.279Z,100926.02
2023-04-30T19:37:31.866Z,100923.36
2023-04-30T19:40:09.408Z,100928.48
2023-04-30T19:42:41.608Z,100924.03
2023-04-30T19:45:14.841Z,100936.94
2023-04-30T19:47:47.206Z,100930.81
2023-04-30T19:50:20.566Z,100938.55
2023-04-30T19:52:53.173Z,100939.32
2023-04-30T19:55:26.622Z,100948.80
2023-04-30T19:57:58.820Z,100940.08
2023-04-30T20:00:31.069Z,100939.17
2023-04-30T20:03:05.394Z,100935.64
2023-04-30T20:05:39.838Z,100945.96
2023-04-30T20:08:10.461Z,100944.12
2023-04-30T20:10:44.302Z,100944.03
2023-04-30T20:13:17.351Z,100939.67
2023-04-30T20:15:50.124Z,100943.11
2023-04-30T20:18:23.013Z,100938.77
2023-04-30T20:20:59.904Z,100945.62
2023-04-30T20:23:32.252Z,100942.11
2023-04-30T20:26:04.759Z,100945.48
2023-04-30T20:28:37.656Z,100952.25
2023-04-30T20:31:11.004Z,100949.52
2023-04-30T20:33:43.630Z,100954.58
2023-04-30T20:36:16.911Z,100949.28
2023-04-30T20:38:49.443Z,100950.13
2023-04-30T20:41:22.129Z,100955.24
2023-04-30T20:43:57.047Z,100961.20
2023-04-30T20:46:31.206Z,100961.13
2023-04-30T20:49:06.468Z,100956.78
2023-04-30T20:51:40.423Z,100954.07
2023-04-30T20:54:12.854Z,100957.48
2023-04-30T20:56:47.197Z,100958.28
2023-04-30T20:59:17.801Z,100955.60
2023-04-30T21:01:52.472Z,100966.73
2023-04-30T21:04:25.291Z,100969.18
2023-04-30T21:06:57.700Z,100957.82
2023-04-30T21:09:29.902Z,100966.42
2023-04-30T21:12:04.523Z,100967.14
2023-04-30T21:14:36.817Z,100964.45
2023-04-30T21:17:10.073Z,100979.06
2023-04-30T21:19:42.252Z,100980.66
2023-04-30T21:22:14.532Z,100985.75
2023-04-30T21:24:46.697Z,100984.79
2023-04-30T21:27:19.566Z,100985.61
2023-04-30T21:29:51.780Z,100989.84
2023-04-30T21:32:27.088Z,100984.58
2023-04-30T21:34:59.399Z,100988.80
2023-04-30T21:37:31.614Z,100993.11
2023-04-30T21:40:04.438Z,101001.70
2023-04-30T21:42:37.034Z,101000.85
2023-04-30T21:45:11.422Z,100999.05
2023-04-30T21:47:45.013Z,101007.56
2023-04-30T21:50:17.697Z,101014.27
2023-04-30T21:52:51.198Z,101020.95
2023-04-30T21:55:26.279Z,101025.12
2023-04-30T21:57:58.735Z,101024.25
2023-04-30T22:00:31.439Z,101026.77
2023-04-30T22:03:04.248Z,101031.95
2023-04-30T22:05:39.966Z,101030.17
2023-04-30T22:08:12.326Z,101041.27
2023-04-30T22:10:44.783Z,101036.84
2023-04-30T22:13:17.176Z,101038.56
2023-04-30T22:15:49.599Z,101040.29
2023-04-30T22:18:22.749Z,101049.73
2023-04-30T22:20:57.588Z,101050.55
2023-04-30T22:23:30.296Z,101055.55
2023-04-30T22:26:05.162Z,101055.42
2023-04-30T22:28:40.052Z,101063.92
2023-04-30T22:31:13.076Z,101075.04
2023-04-30T22:33:46.645Z,101068.05
2023-04-30T22:36:19.032Z,101069.69
2023-04-30T22:38:52.077Z,101073.09
2023-04-30T22:41:25.836Z,101079.84
2023-04-30T22:43:58.062Z,101072.88
2023-04-30T22:46:33.644Z,101074.53
2023-04-30T22:49:06.728Z,101074.34
2023-04-30T22:51:39.576Z,101076.83
2023-04-30T22:54:12.368Z,101070.72
2023-04-30T22:56:44.704Z,101077.55
2023-04-30T22:59:16.980Z,101074.20
2023-04-30T23:01:49.459Z,101074.22
2023-04-30T23:04:21.760Z,101078.59
2023-04-30T23:06:54.281Z,101082.08
2023-04-30T23:09:26.998Z,101088.20
2023-04-30T23:12:01.811Z,101080.65
2023-04-30T23:14:34.309Z,101079.92
2023-04-30T23:17:06.681Z,101086.93
2023-04-30T23:19:39.481Z,101084.40
2023-04-30T23:22:11.723Z,101085.42
2023-04-30T23:24:43.993Z,101082.12
2023-04-30T23:27:16.751Z,101089.14
2023-04-30T23:29:49.242Z,101087.58
2023-04-30T23:32:22.151Z,101079.08
2023-04-30T23:34:57.393Z,101082.59
2023-04-30T23:37:30.794Z,101084.37
2023-04-30T23:40:05.423Z,101084.37
2023-04-30T23:42:37.967Z,101085.19
2023-04-30T23:45:12.181Z,101090.35
2023-04-30T23:47:44.688Z,101086.94
2023-04-30T23:50:17.929Z,101081.66
2023-04-30T23:52:50.407Z,101099.73
2023-04-30T23:55:23.141Z,101091.97
2023-04-30T23:57:56.891Z,101089.39
